Latest Weather Observations for Narrabri

IDN60801

Issued at 10:35 pm EST Tuesday 29 July 2014 (issued every 30 minutes, with the page automatically refreshed every 10 minutes)

About weather observations | Map of weather stations | Latest weather observations for NSW | Other Formats
Station Details ID: 054038 Name: NARRABRI AIRPORT AWS Lat: -30.32 Lon: 149.83 Height: 229.02 m
Data from the previous 72 hours. | See also: Recent months at Narrabri
Date/Time
EST
Temp
°C
App
Temp
°C
Dew
Point
Rel
Hum
%
Delta-T
°C
Wind Press
QNH
hPa
Press
MSL
hPa
Rain
since 9 am
mm
Dir
 
Spd
km/h
Gust
km/h
Spd
kts
Gust
kts
29/10:30pm 5.8 2.8 0.8 70 2.0 E 6 11 3 6 1022.6 - 0.0
29/10:00pm 9.1 5.2 1.0 57 3.3 E 11 17 6 9 1022.5 1022.7 0.0
29/09:30pm 10.4 5.5 2.0 56 3.6 E 17 19 9 10 1022.4 - 0.0
29/09:00pm 9.6 4.7 2.2 60 3.1 E 17 19 9 10 1022.2 1022.4 0.0
29/08:30pm 10.6 6.8 1.9 55 3.7 E 11 13 6 7 1022.1 - 0.0
29/08:00pm 11.0 6.1 1.8 53 3.9 E 17 19 9 10 1021.8 1022.0 0.0
29/07:30pm 11.9 7.3 1.8 50 4.4 E 15 17 8 9 1021.5 - 0.0
29/07:00pm 12.3 8.1 1.9 49 4.5 ENE 13 15 7 8 1021.2 1021.3 0.0
29/06:30pm 11.2 7.3 1.2 50 4.2 NE 11 13 6 7 1020.7 - 0.0
29/06:00pm 14.0 10.9 1.3 42 5.5 N 7 9 4 5 1020.1 1020.3 0.0
29/05:30pm 15.1 11.6 1.3 39 6.1 NW 9 9 5 5 1019.8 - 0.0
29/05:00pm 18.5 15.5 1.9 33 7.6 WSW 7 9 4 5 1020.0 1020.2 0.0
29/04:30pm 19.6 15.7 1.1 29 8.4 WSW 11 15 6 8 1020.2 - 0.0
29/04:00pm 20.0 15.3 1.0 28 8.6 WSW 15 20 8 11 1020.3 1020.5 0.0
29/03:30pm 20.4 16.0 0.3 26 9.1 W 13 20 7 11 1020.2 - 0.0
29/03:00pm 20.2 16.6 0.6 27 8.9 W 9 17 5 9 1020.3 1020.5 0.0
29/02:30pm 20.0 16.8 1.0 28 8.7 W 7 13 4 7 1020.4 - 0.0
29/02:00pm 20.4 16.1 0.8 27 8.9 WSW 13 22 7 12 1020.5 1020.7 0.0
29/01:30pm 20.1 15.7 0.5 27 8.9 W 13 20 7 11 1021.1 - 0.0
29/01:00pm 20.0 16.4 0.5 27 8.8 N 9 19 5 10 1021.5 1021.6 0.0
29/12:30pm 19.1 15.6 1.1 30 8.2 W 9 20 5 11 1022.1 - 0.0
29/12:00pm 19.1 15.0 2.5 33 7.7 NW 13 22 7 12 1022.9 1023.1 0.0
29/11:30am 18.6 14.4 3.6 37 7.1 NNW 15 20 8 11 1023.5 - 0.0
29/11:00am 18.0 13.9 4.2 40 6.6 NNW 15 20 8 11 1024.1 1024.3 0.0
29/10:30am 16.5 13.6 4.5 45 5.7 NNW 9 19 5 10 1024.3 - 0.0
29/10:00am 13.9 11.6 5.5 57 4.0 W 7 11 4 6 1024.4 1024.6 0.0
29/09:30am 11.9 9.7 6.2 68 2.7 SW 7 9 4 5 1024.4 - 0.0
29/09:00am 9.6 7.7 6.7 82 1.4 SW 6 7 3 4 1024.2 1024.4 0.0
29/08:30am 6.7 5.7 5.5 92 0.5 CALM 0 4 0 2 1024.1 - 0.0
29/08:00am 4.3 3.0 4.3 100 0.0 CALM 0 0 0 0 1023.9 1024.1 0.0
29/07:30am 1.9 0.2 1.9 100 0.0 CALM 0 0 0 0 1023.8 - 0.0
29/07:00am 1.4 -0.4 1.1 98 0.1 CALM 0 0 0 0 1023.4 1023.6 0.0
29/06:30am 1.6 -0.1 1.6 100 0.0 CALM 0 6 0 3 1023.2 - 0.0
29/06:00am 0.4 -1.6 0.0 97 0.1 CALM 0 0 0 0 1023.1 1023.3 0.0
29/05:30am 1.4 -0.4 1.1 98 0.1 CALM 0 0 0 0 1022.6 - 0.0
29/05:00am 1.8 0.1 1.7 99 0.0 CALM 0 0 0 0 1022.1 1022.3 0.0
29/04:30am 2.0 -0.1 1.7 98 0.1 SSE 2 6 1 3 1021.8 - 0.0
29/04:00am 1.4 -0.5 0.8 96 0.2 CALM 0 0 0 0 1021.6 1021.7 0.0
29/03:30am 1.7 -0.2 0.7 93 0.4 CALM 0 0 0 0 1021.7 - 0.0
29/03:00am 2.4 -0.1 1.7 95 0.3 S 4 7 2 4 1021.7 1021.8 0.0
29/02:30am 2.5 0.4 1.6 94 0.4 ESE 2 9 1 5 1021.6 - 0.0
29/02:00am 2.1 -0.1 0.8 91 0.5 SSE 2 7 1 4 1021.8 1022.0 0.0
29/01:30am 2.3 -0.8 0.0 85 0.9 SSW 6 7 3 4 1022.0 - 0.0
29/01:00am 5.6 2.0 3.1 84 1.0 E 11 15 6 8 1022.1 1022.3 0.0
29/12:30am 4.1 1.3 1.8 85 0.9 ESE 6 9 3 5 1022.4 - 0.0
29/12:00am 4.2 2.6 2.2 87 0.8 SE 0 0 0 0 1022.6 1022.8 0.0
 
Date/Time
EST
Temp
°C
App
Temp
°C
Dew
Point
Rel
Hum
%
Delta-T
°C
Wind Press
QNH
hPa
Press
MSL
hPa
Rain
since 9 am
mm
Dir
 
Spd
km/h
Gust
km/h
Spd
kts
Gust
kts
28/11:30pm 4.3 2.2 1.7 83 1.0 SW 2 6 1 3 1022.6 - 0.0
28/11:00pm 5.9 3.0 1.2 72 1.9 SE 6 15 3 8 1022.5 1022.7 0.0
28/10:30pm 8.7 4.0 3.1 68 2.4 E 17 19 9 10 1022.6 - 0.0
28/10:00pm 8.8 4.1 3.2 68 2.4 E 17 20 9 11 1022.6 1022.8 0.0
28/09:30pm 9.1 4.4 3.1 66 2.6 E 17 19 9 10 1022.7 - 0.0
28/09:00pm 9.4 4.7 3.4 66 2.6 E 17 19 9 10 1022.6 1022.8 0.0
28/08:30pm 9.4 4.7 3.4 66 2.6 E 17 19 9 10 1022.6 - 0.0
28/08:00pm 9.7 4.7 3.4 65 2.8 E 19 20 10 11 1022.5 1022.7 0.0
28/07:30pm 10.1 5.5 3.6 64 2.9 ENE 17 19 9 10 1022.4 - 0.0
28/07:00pm 10.8 6.9 3.4 60 3.3 ENE 13 15 7 8 1022.4 1022.6 0.0
28/06:30pm 10.8 7.6 2.9 58 3.5 NE 9 9 5 5 1022.3 - 0.0
28/06:00pm 11.6 8.4 3.1 56 3.8 NNE 9 11 5 6 1021.9 1022.1 0.0
28/05:30pm 13.0 9.9 3.4 52 4.3 N 9 9 5 5 1021.7 - 0.0
28/05:00pm 16.4 12.9 3.5 42 6.0 NW 11 13 6 7 1021.7 1021.8 0.0
28/04:30pm 17.8 14.7 3.7 39 6.7 NW 9 15 5 8 1021.6 - 0.0
28/04:00pm 18.3 15.6 3.8 38 6.9 W 7 13 4 7 1021.4 1021.5 0.0
28/03:30pm 18.4 15.8 4.2 39 6.8 SSE 7 11 4 6 1021.6 - 0.0
28/03:00pm 17.8 14.3 3.7 39 6.6 SW 11 17 6 9 1021.8 1022.0 0.0
28/02:30pm 17.8 15.2 4.0 40 6.6 WNW 7 15 4 8 1021.8 - 0.0
28/02:00pm 17.6 14.9 3.5 39 6.6 SE 7 11 4 6 1022.0 1022.2 0.0
28/01:30pm 17.3 14.3 3.9 41 6.3 SSW 9 19 5 10 1022.3 - 0.0
28/01:00pm 17.1 13.7 4.1 42 6.1 SW 11 17 6 9 1022.7 1022.9 0.0
28/12:30pm 16.8 14.1 3.8 42 6.1 W 7 13 4 7 1023.3 - 0.0
28/12:00pm 16.6 13.6 4.0 43 5.9 WNW 9 13 5 7 1024.0 1024.2 0.0
28/11:30am 16.6 13.7 4.6 45 5.7 N 9 15 5 8 1024.4 - 0.0
28/11:00am 15.4 13.0 5.3 51 4.8 NNW 7 11 4 6 1025.0 1025.2 0.0
28/10:30am 14.2 12.0 5.3 55 4.2 NW 6 9 3 5 1025.5 - 0.0
28/10:00am 13.5 12.0 6.6 63 3.3 NNW 4 9 2 5 1025.9 1026.1 0.0
28/09:30am 10.3 8.8 7.0 80 1.6 W 4 7 2 4 1025.7 - 0.0
28/09:00am 7.7 5.1 6.3 91 0.6 SSW 9 11 5 6 1025.9 1026.1 0.0
28/08:30am 7.1 - - - - W 6 7 3 4 1025.5 - 0.0
28/08:00am 3.6 - - - - SSE 7 9 4 5 1025.2 1025.4 0.0
28/07:30am 1.4 - - - - SSE 6 7 3 4 1024.9 - 0.0
28/07:00am 0.8 - - - - CALM 0 0 0 0 1024.7 1024.9 0.0
28/06:30am 0.3 - - - - CALM 0 0 0 0 1024.5 - 0.0
28/06:00am 1.4 - - - - SSE 6 7 3 4 1024.1 1024.3 0.0
28/05:30am 0.1 -3.6 0.1 100 0.0 NE 9 11 5 6 1023.9 - 0.0
28/05:00am 0.9 -2.7 0.9 100 0.0 S 9 11 5 6 1023.9 1024.1 0.0
28/04:30am 0.8 -1.5 0.7 99 0.0 SSE 2 6 1 3 1023.7 - 0.0
28/04:00am 2.1 - - - - CALM 0 0 0 0 1023.5 1023.7 0.0
28/03:30am 2.1 0.4 2.1 100 0.0 CALM 0 0 0 0 1023.5 - 0.0
28/03:00am 1.8 0.1 1.7 99 0.0 CALM 0 0 0 0 1023.4 1023.6 0.0
28/02:30am 1.8 0.0 1.2 96 0.2 CALM 0 0 0 0 1023.1 - 0.0
28/02:00am 2.4 0.7 1.7 95 0.3 CALM 0 0 0 0 1023.0 1023.2 0.0
28/01:30am 3.8 2.4 3.5 98 0.1 CALM 0 0 0 0 1023.2 - 0.0
28/01:00am 3.8 1.2 3.2 96 0.2 E 6 7 3 4 1023.4 1023.6 0.0
28/12:30am 3.7 2.0 1.9 88 0.7 CALM 0 6 0 3 1023.7 - 0.0
28/12:00am 5.4 2.0 4.2 92 0.5 E 11 13 6 7 1024.0 1024.2 0.0
 
Date/Time
EST
Temp
°C
App
Temp
°C
Dew
Point
Rel
Hum
%
Delta-T
°C
Wind Press
QNH
hPa
Press
MSL
hPa
Rain
since 9 am
mm
Dir
 
Spd
km/h
Gust
km/h
Spd
kts
Gust
kts
27/11:30pm 5.7 2.0 4.7 93 0.4 E 13 19 7 10 1024.6 - 0.0
27/11:00pm 5.4 2.3 3.4 87 0.8 E 9 17 5 9 1025.3 1025.5 0.0
27/10:30pm 6.8 2.8 5.0 88 0.8 E 15 19 8 10 1025.6 - 0.0
27/10:00pm 6.8 3.2 4.8 87 0.9 E 13 15 7 8 1025.7 1025.9 0.0
27/09:30pm 7.4 3.5 5.4 87 0.9 E 15 20 8 11 1025.6 - 0.0
27/09:00pm 6.4 2.7 4.6 88 0.8 ENE 13 17 7 9 1025.5 1025.7 0.0
27/08:30pm 7.3 4.9 4.1 80 1.4 NNE 6 7 3 4 1025.3 - 0.0
27/08:00pm 8.7 7.1 4.5 75 1.9 SW 2 7 1 4 1025.2 1025.4 0.0
27/07:30pm 9.6 7.7 4.8 72 2.2 N 4 6 2 3 1025.0 - 0.0
27/07:00pm 8.1 5.5 3.4 72 2.0 N 6 9 3 5 1024.9 1025.1 0.0
27/06:30pm 12.0 9.4 4.0 58 3.6 ESE 7 9 4 5 1024.6 - 0.0
27/06:00pm 13.8 10.9 4.9 55 4.2 ESE 9 13 5 7 1024.2 1024.4 0.0
27/05:30pm 14.8 11.9 4.8 51 4.7 ESE 9 9 5 5 1023.9 - 0.0
27/05:00pm 16.6 14.1 4.9 46 5.6 ESE 7 9 4 5 1023.7 1023.9 0.0
27/04:30pm 17.5 15.1 5.1 44 6.0 ESE 7 11 4 6 1023.6 - 0.0
27/04:00pm 18.0 15.1 4.9 42 6.3 SE 9 15 5 8 1023.5 1023.7 0.0
27/03:30pm 18.2 15.4 5.1 42 6.4 ESE 9 19 5 10 1023.7 - 0.0
27/03:00pm 18.0 14.7 4.6 41 6.4 SSE 11 19 6 10 1023.8 1024.0 0.0
27/02:30pm 17.8 15.3 4.0 40 6.6 ESE 6 11 3 6 1023.8 - 0.0
27/02:00pm 17.9 14.2 4.5 41 6.4 SSE 13 20 7 11 1023.8 1024.0 0.0
27/01:30pm 17.7 13.6 4.3 41 6.4 SSE 15 24 8 13 1024.2 - 0.0
27/01:00pm 17.6 12.7 3.9 40 6.5 ESE 19 24 10 13 1024.5 1024.7 0.0
27/12:30pm 17.2 14.3 4.5 43 6.1 SE 9 13 5 7 1025.1 - 0.0
27/12:00pm 17.1 13.2 5.4 46 5.7 SE 15 22 8 12 1025.7 1025.9 0.0
27/11:30am 16.7 13.1 5.0 46 5.6 SE 13 20 7 11 1026.4 - 0.0
27/11:00am 16.3 12.8 5.6 49 5.2 SE 13 19 7 10 1027.0 1027.2 0.0
27/10:30am 14.6 10.9 6.4 58 4.0 SE 15 20 8 11 1027.2 - 0.0
27/10:00am 13.5 9.9 6.6 63 3.3 SSE 15 20 8 11 1027.3 1027.5 0.0
27/09:30am 12.6 9.3 6.4 66 3.0 SSE 13 17 7 9 1027.2 - 0.0
27/09:00am 11.7 9.3 7.0 73 2.3 S 9 13 5 7 1026.9 1027.1 0.0
27/08:30am 8.6 7.1 8.6 100 0.0 SSW 6 7 3 4 1026.7 - 0.0
27/08:00am 5.2 - - - - CALM 0 0 0 0 1026.5 1026.7 0.0
27/07:30am 2.9 - - - - CALM 0 0 0 0 1026.5 - 0.0
27/07:00am 1.7 -0.8 1.7 100 0.0 NW 4 7 2 4 1026.3 1026.5 0.0
27/06:30am 1.5 -0.6 1.4 99 0.0 N 2 6 1 3 1025.8 - 0.0
27/06:00am 1.8 0.0 1.5 98 0.1 CALM 0 0 0 0 1025.5 1025.7 0.0
27/05:30am 2.5 0.9 2.2 98 0.1 CALM 0 0 0 0 1025.2 - 0.0
27/05:00am 2.9 1.4 2.8 99 0.0 CALM 0 0 0 0 1025.0 1025.2 0.0
27/04:30am 2.4 0.7 1.7 95 0.3 CALM 0 0 0 0 1025.1 - 0.0
27/04:00am 2.6 0.8 1.4 92 0.5 CALM 0 0 0 0 1025.0 1025.2 0.0
27/03:30am 4.0 2.6 3.3 95 0.3 CALM 0 0 0 0 1025.1 - 0.0
27/03:00am 5.0 3.7 4.1 94 0.4 CALM 0 0 0 0 1025.1 1025.3 0.0
27/02:30am 4.7 3.3 3.4 91 0.5 CALM 0 0 0 0 1025.5 - 0.0
27/02:00am 5.0 3.6 3.3 89 0.7 CALM 0 0 0 0 1025.5 1025.7 0.0
27/01:30am 6.1 3.8 4.6 90 0.7 SE 6 9 3 5 1025.6 - 0.0
27/01:00am 4.6 2.7 2.6 87 0.8 SSE 2 6 1 3 1025.8 1026.0 0.0
27/12:30am 6.7 4.6 3.7 81 1.3 SSE 4 7 2 4 1025.9 - 0.0
27/12:00am 7.6 4.9 2.5 70 2.1 SE 6 9 3 5 1025.9 1026.1 0.0
 
Date/Time
EST
Temp
°C
App
Temp
°C
Dew
Point
Rel
Hum
%
Delta-T
°C
Wind Press
QNH
hPa
Press
MSL
hPa
Rain
since 9 am
mm
Dir
 
Spd
km/h
Gust
km/h
Spd
kts
Gust
kts
26/11:30pm 11.1 7.6 5.4 68 2.7 SSE 13 19 7 10 1026.0 - 0.0
26/11:00pm 10.5 7.8 5.7 72 2.2 SSE 9 13 5 7 1026.1 1026.3 0.0

Other Formats:

Comma delimited format used in spreadsheet applications
http://www.bom.gov.au/fwo/IDN60801/IDN60801.95734.axf

JavaScript Object Notation format (JSON) in row-major order
http://www.bom.gov.au/fwo/IDN60801/IDN60801.95734.json